Terminal Aerodrome Forecast
Issued by NWS Paducah, KY

Home | Current Version | Previous Version | Text Only | Print | Product List | Glossary On
Versions: 1 2 3 4 5 6 7 8 9 10 11 12 13 14 15
000
FTUS43 KPAH 250358 AAC
TAFEVV
TAF AMD
KEVV 250358Z 2504/2524 29010KT P6SM SCT030 BKN100
     FM251400 30014G25KT P6SM SCT040
     FM252300 30004KT P6SM SKC=

USA.gov is the U.S. government's official web portal to all federal, state and local government web resources and services.